Time;durP1;ratioP1;P1;durP2;ratioP2;P2;SDS_P1;SDS_P2;PMS_P1;PMS_P2;Temp;Humidity;BMP_temperature;BMP_pressure;BME280_temperature;BME280_humidity;BME280_pressure;Samples;Min_cycle;Max_cycle;Signal;HPM_P1;HPM_P2
2022/05/28 00:01:38;;;;;;;1.67;1.58;;;12.20;99.90;;;;;;4680811;30;20080;-82
2022/05/28 00:04:07;;;;;;;1.25;1.15;;;12.20;99.90;;;;;;4682867;30;20492;-83
2022/05/28 00:06:35;;;;;;;2.03;1.92;;;12.20;99.90;;;;;;4681955;30;20053;-83
2022/05/28 00:09:04;;;;;;;1.95;1.83;;;12.20;99.90;;;;;;4680982;30;20057;-83
2022/05/28 00:11:37;;;;;;;2.40;1.52;;;12.20;99.90;;;;;;4666939;30;20050;-83
2022/05/28 00:14:07;;;;;;;16.23;1.88;;;12.10;99.90;;;;;;4682361;30;20069;-83
2022/05/28 00:17:06;;;;;;;1.55;1.45;;;12.10;99.90;;;;;;4680976;30;20500;-83
2022/05/28 00:19:34;;;;;;;2.40;1.42;;;12.10;99.90;;;;;;4680922;30;20074;-83
2022/05/28 00:22:03;;;;;;;3.50;2.15;;;12.10;99.90;;;;;;4681951;30;20057;-85
2022/05/28 00:24:30;;;;;;;1.30;1.02;;;12.00;99.90;;;;;;4680674;30;20057;-87
2022/05/28 00:26:58;;;;;;;1.33;1.15;;;12.00;99.90;;;;;;4681024;30;20061;-82
2022/05/28 00:29:26;;;;;;;1.27;1.17;;;12.00;99.90;;;;;;4681806;30;20050;-82
2022/05/28 00:31:54;;;;;;;1.85;1.20;;;12.00;99.90;;;;;;4682370;30;20083;-82
2022/05/28 00:34:27;;;;;;;1.50;1.40;;;12.00;99.90;;;;;;4681881;30;20062;-82
2022/05/28 00:36:55;;;;;;;1.23;1.13;;;12.00;99.90;;;;;;4681798;30;20820;-82
2022/05/28 00:39:23;;;;;;;2.78;1.20;;;12.00;99.90;;;;;;4667498;30;20542;-82
2022/05/28 00:41:51;;;;;;;1.45;1.30;;;12.00;99.90;;;;;;4681507;30;20050;-82
2022/05/28 00:44:19;;;;;;;2.05;1.85;;;12.00;99.90;;;;;;4681683;30;20065;-81
2022/05/28 00:46:49;;;;;;;1.77;1.67;;;12.00;99.90;;;;;;4682183;30;20073;-82
2022/05/28 00:49:30;;;;;;;2.08;1.98;;;12.00;99.90;;;;;;4665866;30;20065;-82
2022/05/28 00:52:00;;;;;;;1.20;1.10;;;11.90;99.90;;;;;;4681922;30;20065;-82
2022/05/28 01:12:20;;;;;;;1.30;1.10;;;11.80;99.90;;;;;;4661785;30;20054;-82
2022/05/28 01:16:14;;;;;;;1.92;1.58;;;11.80;99.90;;;;;;4652460;30;20404;-82
2022/05/28 01:19:28;;;;;;;1.70;1.60;;;11.80;99.90;;;;;;4663617;30;20058;-82
2022/05/28 01:24:15;;;;;;;2.53;1.83;;;11.80;99.90;;;;;;4662869;30;20062;-81
2022/05/28 01:28:43;;;;;;;1.70;1.48;;;11.80;99.90;;;;;;4681632;30;20057;-82
2022/05/28 01:32:43;;;;;;;2.15;1.73;;;11.80;99.90;;;;;;4676882;30;20049;-82
2022/05/28 01:35:49;;;;;;;1.42;1.33;;;11.70;99.90;;;;;;4681744;30;20531;-82
2022/05/28 01:39:20;;;;;;;1.48;1.20;;;11.70;99.90;;;;;;4668524;30;20053;-82
2022/05/28 01:41:59;;;;;;;1.38;1.25;;;11.70;99.90;;;;;;4679815;30;20508;-83
2022/05/28 01:57:35;;;;;;;2.67;1.55;;;11.70;99.90;;;;;;4685230;30;20123;-81
2022/05/28 02:00:05;;;;;;;1.58;1.48;;;11.70;99.90;;;;;;4685356;30;20062;-82
2022/05/28 02:02:32;;;;;;;1.48;1.38;;;11.70;99.90;;;;;;4684862;30;20062;-81
2022/05/28 02:05:00;;;;;;;1.50;1.40;;;11.70;99.90;;;;;;4684748;30;20050;-81
2022/05/28 02:08:52;;;;;;;2.20;1.65;;;11.70;99.90;;;;;;4676373;30;20504;-82
2022/05/28 02:12:29;;;;;;;1.55;1.42;;;11.70;99.90;;;;;;4682713;30;20054;-82
2022/05/28 02:15:44;;;;;;;4.57;2.45;;;11.80;99.90;;;;;;4660018;30;20054;-81
2022/05/28 02:18:38;;;;;;;2.90;2.70;;;11.80;99.90;;;;;;4649510;30;20089;-81
2022/05/28 02:21:10;;;;;;;2.22;2.13;;;11.80;99.90;;;;;;4667427;30;20061;-83
2022/05/28 02:24:07;;;;;;;17.25;2.72;;;11.80;99.90;;;;;;4668059;30;20058;-82
2022/05/28 02:26:54;;;;;;;1.25;1.15;;;11.80;99.90;;;;;;4666825;30;20606;-82
2022/05/28 02:30:35;;;;;;;2.13;1.65;;;11.80;99.90;;;;;;4666677;30;20046;-81
2022/05/28 02:35:01;;;;;;;2.83;1.67;;;11.80;99.90;;;;;;4667223;30;20053;-82
2022/05/28 02:39:31;;;;;;;3.13;1.88;;;11.80;99.90;;;;;;4674340;30;20062;-82
2022/05/28 02:43:48;;;;;;;2.05;1.73;;;11.70;99.90;;;;;;4665279;30;20050;-81
2022/05/28 02:48:54;;;;;;;2.97;1.83;;;11.60;99.90;;;;;;4665157;30;20453;-81
2022/05/28 02:52:04;;;;;;;1.70;1.60;;;11.60;99.90;;;;;;4666781;30;20053;-82
2022/05/28 02:54:34;;;;;;;5.50;1.88;;;11.60;99.90;;;;;;4666906;30;20525;-81
2022/05/28 02:57:06;;;;;;;1.58;1.40;;;11.60;99.90;;;;;;4666610;30;20051;-81
2022/05/28 02:59:34;;;;;;;1.70;1.60;;;11.60;99.90;;;;;;4679785;30;20508;-81
2022/05/28 03:02:02;;;;;;;2.60;2.03;;;11.50;99.90;;;;;;4666901;30;20508;-81
2022/05/28 03:04:30;;;;;;;2.38;1.98;;;11.60;99.90;;;;;;4682657;30;20042;-81
2022/05/28 03:06:58;;;;;;;7.60;1.80;;;11.50;99.90;;;;;;4683905;30;20679;-80
2022/05/28 03:14:53;;;;;;;2.35;2.03;;;11.50;99.90;;;;;;4692360;30;20053;-81
2022/05/28 03:17:21;;;;;;;3.20;2.17;;;11.30;99.90;;;;;;4700552;30;20546;-81
2022/05/28 03:19:49;;;;;;;2.13;2.03;;;11.20;99.90;;;;;;4700975;30;20061;-81
2022/05/28 03:22:17;;;;;;;2.63;2.10;;;11.10;99.90;;;;;;4700750;30;20495;-81
2022/05/28 03:24:44;;;;;;;2.92;2.40;;;11.10;99.90;;;;;;4700568;30;20376;-81
2022/05/28 03:27:12;;;;;;;2.10;1.90;;;11.10;99.90;;;;;;4694124;30;20058;-81
2022/05/28 03:29:40;;;;;;;3.47;1.63;;;11.10;99.90;;;;;;4682890;30;20054;-81
2022/05/28 03:32:08;;;;;;;2.13;1.92;;;11.10;99.90;;;;;;4684072;30;20065;-82
2022/05/28 03:34:36;;;;;;;4.65;2.63;;;11.20;99.90;;;;;;4683211;30;20058;-81
2022/05/28 03:37:05;;;;;;;3.72;2.92;;;11.20;99.90;;;;;;4681908;30;20439;-80
2022/05/28 03:39:32;;;;;;;4.15;3.17;;;11.20;99.90;;;;;;4683415;30;20061;-80
2022/05/28 03:42:00;;;;;;;3.65;2.88;;;11.20;99.90;;;;;;4682979;30;20385;-80
2022/05/28 03:44:28;;;;;;;6.00;3.90;;;11.10;99.90;;;;;;4667768;30;20062;-81
2022/05/28 03:46:56;;;;;;;3.15;2.28;;;11.10;99.90;;;;;;4681927;30;20070;-81
2022/05/28 03:49:33;;;;;;;3.00;2.78;;;11.00;99.90;;;;;;4681377;30;20061;-81
2022/05/28 03:52:01;;;;;;;2.72;2.22;;;11.00;99.90;;;;;;4683503;30;20065;-81
2022/05/28 03:54:29;;;;;;;1.83;1.73;;;11.00;99.90;;;;;;4682836;30;20834;-80
2022/05/28 03:57:02;;;;;;;5.80;2.75;;;11.00;99.90;;;;;;4682574;30;20046;-81
2022/05/28 03:59:30;;;;;;;2.80;2.65;;;10.90;99.90;;;;;;4681703;30;20054;-80
2022/05/28 04:01:58;;;;;;;8.93;4.13;;;11.00;99.90;;;;;;4682901;30;20499;-81
2022/05/28 04:04:27;;;;;;;4.70;1.85;;;11.00;99.90;;;;;;4683008;30;20396;-80
2022/05/28 04:06:54;;;;;;;6.47;2.10;;;10.90;99.90;;;;;;4683044;30;20057;-80
2022/05/28 04:09:22;;;;;;;2.25;1.92;;;10.90;99.90;;;;;;4682508;30;20061;-81
2022/05/28 04:11:50;;;;;;;2.58;2.38;;;10.90;99.90;;;;;;4682460;30;20062;-81
2022/05/28 04:14:18;;;;;;;4.30;2.30;;;10.90;99.90;;;;;;4682259;30;20057;-81
2022/05/28 04:16:46;;;;;;;1.70;1.58;;;10.90;99.90;;;;;;4681048;30;20058;-81
2022/05/28 04:19:14;;;;;;;2.33;1.85;;;10.90;99.90;;;;;;4696163;30;20085;-81
2022/05/28 04:21:42;;;;;;;7.53;2.45;;;10.90;99.90;;;;;;4682299;30;20436;-79
2022/05/28 04:28:44;;;;;;;4.63;3.08;;;10.80;99.90;;;;;;4680001;30;20787;-79
2022/05/28 04:31:14;;;;;;;3.08;1.80;;;10.80;99.90;;;;;;4682053;30;20062;-80
2022/05/28 04:33:42;;;;;;;7.22;2.92;;;10.80;99.90;;;;;;4682222;30;20061;-81
2022/05/28 04:36:10;;;;;;;2.95;2.47;;;10.80;99.90;;;;;;4667116;30;20062;-80
2022/05/28 04:38:39;;;;;;;3.25;2.38;;;10.80;99.90;;;;;;4681771;30;20386;-80
2022/05/28 04:41:07;;;;;;;3.50;2.58;;;10.80;99.90;;;;;;4680353;30;20053;-79
2022/05/28 04:43:35;;;;;;;5.13;2.58;;;10.80;99.90;;;;;;4682488;30;20556;-80
2022/05/28 04:46:10;;;;;;;2.60;2.35;;;10.80;99.90;;;;;;4681952;30;20728;-81
2022/05/28 04:48:39;;;;;;;4.55;1.85;;;10.90;99.90;;;;;;4681843;30;20383;-80
2022/05/28 04:51:06;;;;;;;2.65;1.50;;;11.00;99.90;;;;;;4695492;30;20054;-80
2022/05/28 04:59:42;;;;;;;5.15;2.17;;;11.20;99.90;;;;;;4681522;30;20046;-80
2022/05/28 05:04:07;;;;;;;1.30;1.30;;;11.20;99.90;;;;;;4689044;30;20049;-81
2022/05/28 05:08:30;;;;;;;6.40;2.33;;;11.00;99.90;;;;;;4674897;30;20411;-81
2022/05/28 05:18:05;;;;;;;2.58;2.05;;;11.20;99.90;;;;;;4665956;30;20057;-80
2022/05/28 05:20:33;;;;;;;3.35;2.80;;;11.20;99.90;;;;;;4664362;30;20058;-80
2022/05/28 05:23:01;;;;;;;8.10;2.58;;;11.10;99.90;;;;;;4664784;30;20059;-81
2022/05/28 05:25:29;;;;;;;5.32;2.63;;;11.00;99.90;;;;;;4663767;30;20046;-81
2022/05/28 05:27:57;;;;;;;4.07;3.13;;;11.10;99.90;;;;;;4664436;30;20058;-80
2022/05/28 05:30:25;;;;;;;10.23;2.95;;;11.30;99.90;;;;;;4664435;30;20412;-81
2022/05/28 05:32:53;;;;;;;4.03;2.72;;;11.40;99.90;;;;;;4664132;30;20047;-80
2022/05/28 05:35:21;;;;;;;7.10;1.88;;;11.50;99.90;;;;;;4664410;30;20507;-81
2022/05/28 05:37:49;;;;;;;2.85;2.55;;;11.50;99.90;;;;;;4662393;30;20054;-80
2022/05/28 05:40:17;;;;;;;2.40;2.03;;;11.40;99.90;;;;;;4676873;30;20062;-80
2022/05/28 05:42:47;;;;;;;10.70;4.60;;;11.50;99.90;;;;;;4662710;30;20054;-82
2022/05/28 05:45:15;;;;;;;7.55;3.55;;;11.50;99.90;;;;;;4664151;30;20058;-81
2022/05/28 05:47:43;;;;;;;4.65;2.50;;;11.50;99.90;;;;;;4663169;30;20054;-82
2022/05/28 05:50:11;;;;;;;1.95;1.85;;;11.40;99.90;;;;;;4662893;30;20428;-81
2022/05/28 05:52:40;;;;;;;6.72;2.00;;;11.40;99.90;;;;;;4662860;30;20062;-79
2022/05/28 05:55:16;;;;;;;6.32;3.05;;;11.50;99.90;;;;;;4648828;30;20085;-81
2022/05/28 05:57:44;;;;;;;2.35;2.15;;;11.50;99.90;;;;;;4664375;30;20062;-81
2022/05/28 06:00:12;;;;;;;4.10;2.03;;;11.30;99.90;;;;;;4664877;30;20072;-80
2022/05/28 06:02:40;;;;;;;5.80;2.30;;;11.20;99.90;;;;;;4649379;30;20058;-81
2022/05/28 06:05:09;;;;;;;4.43;1.88;;;11.20;99.90;;;;;;4664045;30;20055;-81
2022/05/28 06:07:41;;;;;;;3.35;3.05;;;11.30;99.90;;;;;;4663042;30;20042;-82
2022/05/28 06:10:10;;;;;;;3.63;2.28;;;11.60;99.90;;;;;;4662602;30;20066;-81
2022/05/28 06:12:39;;;;;;;2.80;2.03;;;11.80;99.90;;;;;;4662656;30;20062;-81
2022/05/28 06:15:08;;;;;;;2.45;1.45;;;11.70;99.90;;;;;;4664562;30;20054;-82
2022/05/28 06:17:37;;;;;;;3.88;2.33;;;11.50;99.90;;;;;;4690796;30;20061;-84
2022/05/28 06:20:11;;;;;;;2.78;2.10;;;11.30;99.90;;;;;;4666427;30;20578;-83
2022/05/28 06:22:39;;;;;;;8.32;2.00;;;11.10;99.90;;;;;;4680476;30;20684;-81
2022/05/28 06:25:08;;;;;;;1.88;1.70;;;11.00;99.90;;;;;;4679940;30;20046;-84
2022/05/28 06:27:36;;;;;;;7.20;1.75;;;11.00;99.90;;;;;;4665824;30;20058;-81
2022/05/28 06:30:05;;;;;;;2.30;2.10;;;11.20;99.90;;;;;;4679556;30;20058;-82
2022/05/28 06:32:33;;;;;;;4.90;2.00;;;11.40;99.90;;;;;;4679713;30;20058;-82
2022/05/28 06:35:01;;;;;;;3.05;1.30;;;11.50;99.90;;;;;;4694737;30;20062;-83
2022/05/28 06:37:29;;;;;;;3.55;1.10;;;11.30;99.90;;;;;;4683770;30;20061;-82
2022/05/28 06:39:57;;;;;;;2.58;1.30;;;11.30;99.90;;;;;;4675888;30;20517;-80
2022/05/28 06:42:25;;;;;;;9.90;1.77;;;11.30;99.90;;;;;;4701388;30;20050;-84
2022/05/28 06:45:00;;;;;;;12.40;2.97;;;11.40;99.90;;;;;;4693876;30;20065;-83
2022/05/28 06:47:31;;;;;;;1.67;1.02;;;11.50;99.90;;;;;;4684391;30;20058;-81
2022/05/28 06:52:46;;;;;;;3.00;1.67;;;11.50;99.90;;;;;;4670735;30;20054;-80
2022/05/28 06:55:15;;;;;;;10.15;1.88;;;11.40;99.90;;;;;;4684052;30;20058;-85
2022/05/28 06:57:44;;;;;;;2.75;1.58;;;11.30;99.90;;;;;;4683618;30;20049;-81
2022/05/28 07:00:18;;;;;;;1.80;1.67;;;11.20;99.90;;;;;;4683053;30;20077;-82
2022/05/28 07:02:53;;;;;;;3.30;1.67;;;11.10;99.90;;;;;;4680931;30;20067;-81
2022/05/28 07:05:31;;;;;;;2.97;1.90;;;11.10;99.90;;;;;;4682669;30;20065;-80
2022/05/28 07:08:18;;;;;;;6.88;3.60;;;11.50;99.90;;;;;;4678965;30;20062;-81
2022/05/28 07:10:55;;;;;;;6.85;2.75;;;11.80;99.90;;;;;;4685738;30;20394;-81
2022/05/28 07:13:26;;;;;;;6.05;2.67;;;11.80;99.90;;;;;;4682052;30;20045;-80
2022/05/28 07:16:00;;;;;;;3.20;1.88;;;11.90;99.90;;;;;;4682893;30;20435;-82
2022/05/28 07:18:28;;;;;;;3.80;2.30;;;11.60;99.90;;;;;;4664787;30;20066;-81
2022/05/28 07:20:56;;;;;;;3.58;2.58;;;11.70;99.90;;;;;;4666056;30;20046;-82
2022/05/28 07:23:27;;;;;;;2.92;1.58;;;12.00;99.90;;;;;;4667141;30;20823;-81
2022/05/28 07:26:06;;;;;;;2.58;2.25;;;12.20;99.90;;;;;;4654866;30;20066;-82
2022/05/28 07:28:37;;;;;;;1.77;1.67;;;12.10;99.90;;;;;;4665805;30;20054;-81
2022/05/28 07:31:10;;;;;;;4.32;2.53;;;11.90;99.90;;;;;;4650944;30;20050;-86
2022/05/28 07:33:41;;;;;;;9.55;2.97;;;11.60;99.90;;;;;;4677045;30;20051;-85
2022/05/28 07:36:11;;;;;;;7.60;3.80;;;11.40;99.90;;;;;;4656953;30;20053;-82
2022/05/28 07:38:41;;;;;;;3.25;2.25;;;11.80;99.90;;;;;;4659759;30;20051;-82
2022/05/28 07:41:15;;;;;;;20.58;3.47;;;11.90;99.90;;;;;;4654365;30;20055;-80
2022/05/28 07:43:50;;;;;;;7.95;2.08;;;11.70;99.90;;;;;;4647986;30;20054;-80
2022/05/28 07:46:31;;;;;;;8.88;3.40;;;11.70;99.90;;;;;;4647609;30;20059;-85
2022/05/28 07:49:01;;;;;;;10.27;3.67;;;11.80;99.90;;;;;;4649350;30;20055;-81
2022/05/28 07:51:35;;;;;;;5.40;1.92;;;11.60;99.90;;;;;;4665153;30;20480;-82
2022/05/28 07:54:05;;;;;;;2.97;1.87;;;12.00;99.90;;;;;;4665635;30;20042;-81
2022/05/28 07:56:33;;;;;;;5.35;2.58;;;12.20;99.90;;;;;;4654930;30;20301;-85
2022/05/28 07:59:03;;;;;;;12.93;2.80;;;12.50;99.90;;;;;;4662331;30;20042;-81
2022/05/28 08:01:32;;;;;;;4.97;2.97;;;12.50;99.90;;;;;;4660889;30;20058;-81
2022/05/28 08:04:09;;;;;;;5.07;2.17;;;12.40;99.90;;;;;;4656196;30;20058;-82
2022/05/28 08:06:38;;;;;;;6.07;2.85;;;12.40;99.90;;;;;;4643571;30;20058;-80
2022/05/28 08:09:09;;;;;;;6.63;1.83;;;12.30;99.90;;;;;;4650898;30;20058;-81
2022/05/28 08:11:41;;;;;;;7.55;2.78;;;12.30;99.90;;;;;;4675879;30;20043;-82
2022/05/28 08:14:09;;;;;;;2.75;2.55;;;12.60;99.90;;;;;;4651871;30;20047;-82
2022/05/28 08:16:40;;;;;;;1.98;1.83;;;12.60;99.90;;;;;;4668088;30;20065;-84
2022/05/28 08:19:14;;;;;;;4.60;2.58;;;12.50;99.90;;;;;;4682027;30;20050;-83
2022/05/28 08:24:28;;;;;;;3.63;2.20;;;12.20;99.90;;;;;;4681994;30;20061;-83
2022/05/28 08:26:58;;;;;;;5.07;2.33;;;12.10;99.90;;;;;;4680902;30;20069;-83
2022/05/28 08:29:26;;;;;;;2.15;1.95;;;12.10;99.90;;;;;;4680117;30;20593;-80
2022/05/28 08:31:53;;;;;;;7.97;2.25;;;12.00;99.90;;;;;;4681675;30;20058;-78
2022/05/28 08:34:22;;;;;;;4.30;1.85;;;11.90;99.90;;;;;;4678102;30;20054;-78
2022/05/28 08:36:52;;;;;;;2.33;1.90;;;11.90;99.90;;;;;;4677628;30;20541;-78
2022/05/28 08:39:20;;;;;;;7.53;1.98;;;12.00;99.90;;;;;;4678926;30;20058;-78
2022/05/28 08:41:57;;;;;;;5.55;2.60;;;12.10;99.90;;;;;;4676346;30;20061;-78
2022/05/28 08:44:29;;;;;;;6.32;2.50;;;12.30;99.90;;;;;;4677523;30;20050;-80
2022/05/28 08:47:13;;;;;;;1.70;1.60;;;12.20;99.90;;;;;;4682136;30;20053;-83
2022/05/28 09:15:02;;;;;;;2.30;1.70;;;12.50;99.90;;;;;;4665135;30;20042;-84
2022/05/28 09:35:19;;;;;;;2.45;2.13;;;12.70;99.90;;;;;;4674807;30;20052;-80
2022/05/28 09:38:08;;;;;;;7.07;1.40;;;12.80;99.90;;;;;;4697702;30;20053;-83
2022/05/28 09:41:00;;;;;;;4.88;1.73;;;12.60;99.90;;;;;;4682679;30;20510;-84
2022/05/28 09:44:01;;;;;;;21.15;2.47;;;12.70;99.90;;;;;;4682839;30;20376;-83
2022/05/28 09:46:49;;;;;;;1.88;1.50;;;12.90;99.90;;;;;;4673745;30;20058;-85
2022/05/28 09:49:24;;;;;;;;;;;13.00;99.90;;;;;;4697340;30;20073;-86
2022/05/28 09:52:09;;;;;;;1.10;1.00;;;13.00;99.90;;;;;;4682748;30;19934;-86
2022/05/28 09:54:37;;;;;;;2.63;2.50;;;13.10;99.90;;;;;;4682702;30;20511;-83
2022/05/28 09:57:11;;;;;;;3.67;1.40;;;12.90;99.90;;;;;;4681720;30;20049;-78
2022/05/28 09:59:49;;;;;;;2.63;1.40;;;13.10;99.90;;;;;;4696832;30;20056;-84
2022/05/28 10:02:21;;;;;;;1.48;1.10;;;13.00;99.90;;;;;;4668504;30;20060;-84
2022/05/28 10:05:16;;;;;;;1.30;1.10;;;13.00;99.90;;;;;;4689272;30;20116;-83
2022/05/28 10:07:50;;;;;;;1.63;1.52;;;13.20;99.90;;;;;;4697548;30;20061;-87
2022/05/28 10:10:22;;;;;;;4.80;3.50;;;13.20;99.90;;;;;;4696143;30;20499;-85
2022/05/28 10:12:50;;;;;;;3.35;1.20;;;13.20;99.90;;;;;;4697951;30;20054;-81
2022/05/28 10:15:20;;;;;;;2.47;1.05;;;13.10;99.90;;;;;;4686058;30;20066;-83
2022/05/28 10:17:56;;;;;;;1.17;0.97;;;13.20;99.90;;;;;;4685685;30;20577;-84
2022/05/28 10:20:24;;;;;;;1.42;0.88;;;13.30;99.90;;;;;;4686045;30;21034;-85
2022/05/28 10:22:54;;;;;;;2.95;1.92;;;13.30;99.90;;;;;;4676564;30;20061;-85
2022/05/28 10:25:47;;;;;;;2.47;2.33;;;13.30;99.90;;;;;;4686049;30;20050;-90
2022/05/28 10:28:31;;;;;;;2.38;2.17;;;13.20;99.90;;;;;;4701732;30;20057;-83
2022/05/28 10:30:59;;;;;;;6.63;1.52;;;13.30;99.90;;;;;;4684028;30;20058;-83
2022/05/28 10:33:31;;;;;;;1.33;1.23;;;13.40;99.90;;;;;;4690231;30;20797;-84
2022/05/28 10:36:15;;;;;;;1.20;1.10;;;13.50;99.90;;;;;;4691947;30;20088;-83
2022/05/28 10:38:46;;;;;;;1.98;1.30;;;13.40;99.90;;;;;;4681033;30;20430;-84
2022/05/28 10:41:21;;;;;;;5.38;3.58;;;13.40;99.90;;;;;;4685141;30;20048;-84
2022/05/28 10:43:52;;;;;;;1.08;1.08;;;13.50;99.90;;;;;;4686004;30;20419;-86
2022/05/28 10:46:44;;;;;;;2.55;0.93;;;13.50;99.90;;;;;;4685357;30;20050;-84
2022/05/28 10:49:51;;;;;;;7.95;1.20;;;13.50;99.90;;;;;;4701333;30;20075;-86
2022/05/28 10:53:07;;;;;;;2.30;1.15;;;13.60;99.90;;;;;;4701151;30;20073;-85
2022/05/28 10:55:45;;;;;;;5.35;1.85;;;13.50;99.90;;;;;;4677835;30;20073;-81
2022/05/28 10:58:41;;;;;;;4.10;1.85;;;13.70;99.90;;;;;;4700319;30;20053;-81
2022/05/28 11:01:47;;;;;;;5.45;3.00;;;13.70;99.90;;;;;;4681964;30;20054;-78
2022/05/28 11:04:53;;;;;;;1.35;1.00;;;13.90;99.90;;;;;;4687595;30;20061;-77
2022/05/28 11:07:40;;;;;;;1.23;1.13;;;13.70;99.90;;;;;;4685960;30;20053;-81
2022/05/28 11:10:08;;;;;;;1.75;1.05;;;13.40;99.90;;;;;;4700341;30;20049;-83
2022/05/28 11:12:42;;;;;;;3.65;2.17;;;13.70;99.90;;;;;;4699445;30;20050;-82
2022/05/28 11:15:25;;;;;;;3.63;1.10;;;13.80;99.90;;;;;;4671251;30;20057;-82
2022/05/28 11:18:17;;;;;;;2.58;1.08;;;13.70;99.90;;;;;;4698431;30;20058;-77
2022/05/28 11:20:54;;;;;;;1.48;1.00;;;13.80;99.90;;;;;;4698795;30;20045;-77
2022/05/28 11:24:09;;;;;;;1.52;1.23;;;13.60;99.90;;;;;;4700617;30;20053;-78
2022/05/28 11:26:50;;;;;;;2.10;1.05;;;13.70;99.90;;;;;;4644775;30;20047;-77
2022/05/28 11:29:33;;;;;;;0.90;0.90;;;13.70;99.90;;;;;;4649381;30;20546;-78
2022/05/28 11:32:07;;;;;;;5.95;1.33;;;13.50;99.90;;;;;;4689078;30;20062;-79
2022/05/28 11:34:48;;;;;;;0.82;0.82;;;13.80;99.90;;;;;;4697511;30;20090;-81
2022/05/28 11:37:21;;;;;;;;;;;13.90;99.90;;;;;;4697795;30;20057;-78
2022/05/28 11:40:07;;;;;;;6.47;3.53;;;14.10;99.90;;;;;;4698204;30;19927;-77
2022/05/28 11:43:03;;;;;;;4.40;1.30;;;14.10;99.90;;;;;;4697774;30;20503;-82
2022/05/28 11:45:52;;;;;;;7.22;2.47;;;14.00;99.90;;;;;;4696881;30;20057;-77
2022/05/28 11:51:43;;;;;;;2.50;1.55;;;14.10;99.90;;;;;;4696795;30;20053;-77
2022/05/28 11:54:27;;;;;;;0.80;0.80;;;13.90;99.90;;;;;;4697045;30;20491;-77
2022/05/28 11:57:00;;;;;;;1.58;1.05;;;13.70;99.90;;;;;;4695573;30;20508;-79
2022/05/28 11:59:28;;;;;;;3.95;1.23;;;13.90;99.90;;;;;;4696631;30;20065;-77
2022/05/28 12:02:13;;;;;;;5.10;1.35;;;14.10;99.90;;;;;;4696408;30;20511;-78
2022/05/28 12:04:43;;;;;;;2.63;1.45;;;14.40;99.90;;;;;;4696767;30;20077;-78
2022/05/28 12:07:24;;;;;;;4.63;1.40;;;14.30;99.90;;;;;;4694958;30;20502;-77
2022/05/28 12:09:52;;;;;;;1.50;1.13;;;14.40;99.90;;;;;;4696096;30;20060;-78
2022/05/28 12:12:25;;;;;;;5.28;0.90;;;14.70;99.90;;;;;;4694271;30;20732;-77
2022/05/28 12:15:16;;;;;;;0.88;0.80;;;14.70;99.90;;;;;;4696285;30;20051;-78
2022/05/28 12:18:20;;;;;;;2.03;1.00;;;14.90;99.90;;;;;;4695646;30;20057;-77
2022/05/28 12:20:54;;;;;;;0.90;0.70;;;14.70;99.90;;;;;;4695868;30;20060;-78
2022/05/28 12:23:41;;;;;;;0.90;0.85;;;14.50;99.90;;;;;;4696010;30;20061;-77
2022/05/28 12:26:49;;;;;;;1.02;0.90;;;14.50;99.90;;;;;;4696100;30;20065;-78
2022/05/28 12:29:48;;;;;;;6.72;1.40;;;14.60;99.90;;;;;;4695612;30;20061;-78
2022/05/28 12:32:19;;;;;;;1.60;1.00;;;14.80;99.90;;;;;;4697063;30;20046;-78
2022/05/28 12:34:58;;;;;;;0.90;0.90;;;14.80;99.90;;;;;;4694562;30;20082;-78
2022/05/28 12:37:35;;;;;;;4.43;1.00;;;14.40;99.90;;;;;;4695494;30;20060;-78
2022/05/28 12:40:29;;;;;;;1.67;1.10;;;14.30;99.90;;;;;;4694846;30;20064;-78
2022/05/28 12:43:37;;;;;;;1.25;0.90;;;14.70;99.90;;;;;;4678779;30;20082;-77
2022/05/28 12:46:15;;;;;;;2.85;1.27;;;14.90;99.90;;;;;;4642238;30;20059;-78
2022/05/28 12:48:45;;;;;;;1.48;0.82;;;14.80;99.90;;;;;;4641018;30;20059;-77
2022/05/28 12:51:22;;;;;;;4.82;2.45;;;14.70;99.90;;;;;;4657750;30;20570;-77
2022/05/28 12:53:59;;;;;;;6.03;1.65;;;14.80;99.90;;;;;;4695542;30;20511;-79
2022/05/28 12:56:47;;;;;;;1.63;1.23;;;15.20;99.90;;;;;;4693011;30;20415;-78
2022/05/28 12:59:24;;;;;;;1.70;0.90;;;15.20;99.90;;;;;;4696409;30;20080;-78
2022/05/28 13:02:09;;;;;;;3.33;1.42;;;15.10;99.90;;;;;;4679540;30;20053;-77
2022/05/28 13:04:48;;;;;;;7.20;1.20;;;14.90;99.50;;;;;;4696334;30;20058;-78
2022/05/28 13:07:27;;;;;;;1.75;0.90;;;14.70;99.90;;;;;;4694957;30;20062;-78
2022/05/28 13:10:28;;;;;;;1.65;0.93;;;14.50;99.90;;;;;;4692070;30;20414;-78
2022/05/28 13:13:02;;;;;;;2.17;1.40;;;14.60;99.20;;;;;;4686291;30;20071;-78
2022/05/28 13:15:42;;;;;;;0.95;0.90;;;14.70;98.40;;;;;;4697765;30;20062;-77
2022/05/28 13:18:16;;;;;;;1.67;1.58;;;14.90;99.90;;;;;;4696705;30;20511;-83
2022/05/28 13:21:02;;;;;;;1.23;1.13;;;15.10;99.90;;;;;;4696868;30;20061;-87
2022/05/28 13:24:06;;;;;;;1.63;1.20;;;14.70;97.80;;;;;;4684401;30;20534;-86
2022/05/28 13:26:58;;;;;;;1.98;1.77;;;14.60;99.90;;;;;;4683603;30;20064;-84
2022/05/28 13:29:48;;;;;;;1.45;1.00;;;14.60;99.90;;;;;;4697441;30;20045;-90
2022/05/28 13:32:38;;;;;;;3.10;0.90;;;14.40;99.90;;;;;;4696252;30;20531;-78
2022/05/28 13:35:12;;;;;;;3.05;0.98;;;14.30;99.00;;;;;;4672795;30;20050;-84
2022/05/28 13:38:02;;;;;;;2.33;1.10;;;14.20;99.90;;;;;;4675141;30;20419;-85
2022/05/28 13:40:43;;;;;;;2.65;1.23;;;14.10;99.90;;;;;;4663545;30;20050;-86
2022/05/28 13:43:15;;;;;;;2.15;1.27;;;14.30;99.90;;;;;;4684043;30;20050;-87
2022/05/28 13:49:53;;;;;;;2.67;0.85;;;14.90;99.90;;;;;;4668904;30;20061;-85
2022/05/28 13:52:22;;;;;;;1.48;1.38;;;14.80;99.00;;;;;;4685796;30;20062;-86
2022/05/28 13:55:03;;;;;;;2.58;0.60;;;14.70;99.90;;;;;;4685597;30;20057;-83
2022/05/28 13:57:39;;;;;;;1.02;0.93;;;14.60;99.50;;;;;;4683053;30;20057;-81
2022/05/28 14:00:28;;;;;;;2.63;1.15;;;14.30;99.90;;;;;;4700224;30;20053;-80
2022/05/28 14:03:03;;;;;;;2.70;1.00;;;14.20;99.90;;;;;;4669054;30;20442;-82
2022/05/28 14:05:39;;;;;;;4.78;0.63;;;14.30;99.90;;;;;;4684174;30;20054;-88
2022/05/28 14:08:40;;;;;;;3.85;2.17;;;14.30;99.90;;;;;;4700085;30;20079;-85
2022/05/28 14:11:15;;;;;;;;;;;14.30;99.90;;;;;;4683910;30;20045;-83
2022/05/28 14:13:45;;;;;;;1.05;0.95;;;14.30;99.90;;;;;;4702111;30;19944;-81
2022/05/28 14:16:27;;;;;;;0.82;0.82;;;14.30;99.90;;;;;;4670224;30;20050;-82
2022/05/28 14:19:03;;;;;;;1.83;0.75;;;14.30;99.10;;;;;;4685723;30;20057;-84
2022/05/28 14:21:39;;;;;;;3.17;1.30;;;14.00;98.00;;;;;;4686156;30;20046;-86
2022/05/28 14:24:26;;;;;;;1.88;0.55;;;14.00;98.80;;;;;;4699034;30;20058;-82
2022/05/28 14:26:58;;;;;;;0.70;0.70;;;14.00;99.90;;;;;;4656914;30;20053;-82
2022/05/28 14:29:31;;;;;;;0.70;0.65;;;14.10;99.20;;;;;;4693294;30;20053;-81
2022/05/28 14:32:06;;;;;;;0.90;0.90;;;14.10;99.90;;;;;;4700560;30;20415;-84
2022/05/28 14:34:50;;;;;;;2.70;0.70;;;14.00;98.00;;;;;;4700822;30;20054;-82
2022/05/28 14:37:24;;;;;;;2.40;1.33;;;14.10;99.90;;;;;;4685455;30;20064;-82
2022/05/28 14:45:00;;;;;;;2.78;1.50;;;14.20;99.90;;;;;;4701338;30;20045;-81
2022/05/28 14:47:35;;;;;;;0.80;0.60;;;14.20;98.60;;;;;;4703353;30;20061;-82
2022/05/28 14:50:06;;;;;;;0.57;0.57;;;14.20;99.20;;;;;;4708285;30;20053;-83
2022/05/28 14:52:35;;;;;;;1.30;1.30;;;14.30;97.60;;;;;;4699843;30;20057;-81
2022/05/28 14:55:08;;;;;;;0.82;0.77;;;14.30;99.90;;;;;;4701516;30;20492;-83
2022/05/28 14:57:40;;;;;;;1.35;1.23;;;14.40;98.30;;;;;;4670219;30;20415;-81
2022/05/28 15:00:14;;;;;;;1.83;0.80;;;14.30;99.90;;;;;;4702867;30;20045;-84
2022/05/28 15:02:43;;;;;;;3.33;0.85;;;14.20;99.90;;;;;;4716935;30;20056;-81
2022/05/28 15:05:20;;;;;;;1.60;1.27;;;13.90;98.00;;;;;;4716456;30;20068;-81
2022/05/28 15:08:05;;;;;;;3.55;1.13;;;14.00;99.90;;;;;;4712239;30;20053;-81
2022/05/28 15:10:45;;;;;;;2.72;0.88;;;14.10;99.70;;;;;;4692264;30;20050;-81
2022/05/28 15:13:19;;;;;;;0.88;0.88;;;14.20;98.00;;;;;;4682474;30;20065;-81
2022/05/28 15:15:57;;;;;;;1.35;1.35;;;14.40;98.40;;;;;;4699308;30;20400;-81
2022/05/28 15:18:27;;;;;;;1.38;1.13;;;14.40;98.40;;;;;;4685398;30;20066;-81
2022/05/28 15:20:58;;;;;;;5.30;3.13;;;14.50;98.20;;;;;;4685405;30;20054;-82
2022/05/28 15:23:30;;;;;;;1.95;0.82;;;14.50;99.30;;;;;;4698847;30;20772;-81
2022/05/28 15:25:58;;;;;;;1.45;1.00;;;14.60;99.30;;;;;;4700137;30;20064;-82
2022/05/28 15:28:26;;;;;;;1.98;0.73;;;14.90;99.90;;;;;;4683436;30;20437;-81
2022/05/28 15:30:54;;;;;;;2.80;1.30;;;15.10;97.60;;;;;;4685020;30;20065;-80
2022/05/28 15:33:24;;;;;;;1.08;0.85;;;14.90;98.40;;;;;;4684730;30;20054;-81
2022/05/28 15:38:40;;;;;;;0.65;0.60;;;15.40;96.50;;;;;;4698033;30;20057;-84
2022/05/28 15:41:14;;;;;;;2.63;0.70;;;15.10;98.00;;;;;;4700477;30;20050;-82
2022/05/28 15:43:43;;;;;;;1.02;0.98;;;14.90;99.90;;;;;;4701201;30;20087;-82
2022/05/28 15:46:14;;;;;;;2.92;0.88;;;14.80;99.90;;;;;;4699168;30;20050;-83
2022/05/28 15:48:46;;;;;;;1.50;1.13;;;14.70;98.80;;;;;;4700633;30;20057;-83
2022/05/28 15:51:14;;;;;;;1.08;0.80;;;15.10;97.30;;;;;;4700969;30;20049;-85